sensor_id;sensor_type;location;lat;lon;timestamp;P1;P2;P0
74880;PMS5003;63427;49.654;6.596;2023-02-11T00:01:06;78;72;
74880;PMS5003;63427;49.654;6.596;2023-02-11T00:03:29;65;59;
74880;PMS5003;63427;49.654;6.596;2023-02-11T00:05:57;62;58;
74880;PMS5003;63427;49.654;6.596;2023-02-11T00:08:20;67;62;
74880;PMS5003;63427;49.654;6.596;2023-02-11T00:10:50;77;73;
74880;PMS5003;63427;49.654;6.596;2023-02-11T00:13:12;61;57;
74880;PMS5003;63427;49.654;6.596;2023-02-11T00:15:37;76;71;
74880;PMS5003;63427;49.654;6.596;2023-02-11T00:18:03;71;65;
74880;PMS5003;63427;49.654;6.596;2023-02-11T00:20:28;71;68;
74880;PMS5003;63427;49.654;6.596;2023-02-11T00:22:54;65;64;
74880;PMS5003;63427;49.654;6.596;2023-02-11T00:25:19;69;64;
74880;PMS5003;63427;49.654;6.596;2023-02-11T00:27:45;76;71;
74880;PMS5003;63427;49.654;6.596;2023-02-11T00:30:10;69;65;
74880;PMS5003;63427;49.654;6.596;2023-02-11T00:32:35;69;65;
74880;PMS5003;63427;49.654;6.596;2023-02-11T00:35:01;70;68;
74880;PMS5003;63427;49.654;6.596;2023-02-11T00:37:26;80;75;
74880;PMS5003;63427;49.654;6.596;2023-02-11T00:39:51;75;74;
74880;PMS5003;63427;49.654;6.596;2023-02-11T00:42:16;72;68;
74880;PMS5003;63427;49.654;6.596;2023-02-11T00:44:42;74;68;
74880;PMS5003;63427;49.654;6.596;2023-02-11T00:47:07;78;75;
74880;PMS5003;63427;49.654;6.596;2023-02-11T00:49:33;78;75;
74880;PMS5003;63427;49.654;6.596;2023-02-11T00:51:58;77;75;
74880;PMS5003;63427;49.654;6.596;2023-02-11T00:54:24;76;73;
74880;PMS5003;63427;49.654;6.596;2023-02-11T00:56:49;75;72;
74880;PMS5003;63427;49.654;6.596;2023-02-11T00:59:15;86;80;
74880;PMS5003;63427;49.654;6.596;2023-02-11T01:01:41;72;70;
74880;PMS5003;63427;49.654;6.596;2023-02-11T01:04:06;76;73;
74880;PMS5003;63427;49.654;6.596;2023-02-11T01:06:32;68;65;
74880;PMS5003;63427;49.654;6.596;2023-02-11T01:08:57;67;66;
74880;PMS5003;63427;49.654;6.596;2023-02-11T01:11:23;68;65;
74880;PMS5003;63427;49.654;6.596;2023-02-11T01:13:49;76;72;
74880;PMS5003;63427;49.654;6.596;2023-02-11T01:16:14;70;69;
74880;PMS5003;63427;49.654;6.596;2023-02-11T01:18:39;77;69;
74880;PMS5003;63427;49.654;6.596;2023-02-11T01:21:05;76;74;
74880;PMS5003;63427;49.654;6.596;2023-02-11T01:23:30;75;70;
74880;PMS5003;63427;49.654;6.596;2023-02-11T01:25:56;76;68;
74880;PMS5003;63427;49.654;6.596;2023-02-11T01:28:22;70;62;
74880;PMS5003;63427;49.654;6.596;2023-02-11T01:30:47;68;65;
74880;PMS5003;63427;49.654;6.596;2023-02-11T01:33:12;82;76;
74880;PMS5003;63427;49.654;6.596;2023-02-11T01:35:38;63;61;
74880;PMS5003;63427;49.654;6.596;2023-02-11T01:38:04;72;70;
74880;PMS5003;63427;49.654;6.596;2023-02-11T01:40:29;74;70;
74880;PMS5003;63427;49.654;6.596;2023-02-11T01:42:55;70;62;
74880;PMS5003;63427;49.654;6.596;2023-02-11T01:47:46;70;68;
74880;PMS5003;63427;49.654;6.596;2023-02-11T01:50:12;65;60;
74880;PMS5003;63427;49.654;6.596;2023-02-11T01:52:37;71;68;
74880;PMS5003;63427;49.654;6.596;2023-02-11T01:55:04;66;65;
74880;PMS5003;63427;49.654;6.596;2023-02-11T01:57:29;66;65;
74880;PMS5003;63427;49.654;6.596;2023-02-11T01:59:57;70;69;
74880;PMS5003;63427;49.654;6.596;2023-02-11T02:02:20;71;67;
74880;PMS5003;63427;49.654;6.596;2023-02-11T02:04:47;61;60;
74880;PMS5003;63427;49.654;6.596;2023-02-11T02:07:13;71;66;
74880;PMS5003;63427;49.654;6.596;2023-02-11T02:09:36;67;62;
74880;PMS5003;63427;49.654;6.596;2023-02-11T02:12:01;66;63;
74880;PMS5003;63427;49.654;6.596;2023-02-11T02:14:26;68;64;
74880;PMS5003;63427;49.654;6.596;2023-02-11T02:16:51;63;61;
74880;PMS5003;63427;49.654;6.596;2023-02-11T02:19:28;65;64;
74880;PMS5003;63427;49.654;6.596;2023-02-11T02:21:49;73;68;
74880;PMS5003;63427;49.654;6.596;2023-02-11T02:24:13;65;60;
74880;PMS5003;63427;49.654;6.596;2023-02-11T02:26:40;66;64;
74880;PMS5003;63427;49.654;6.596;2023-02-11T02:31:26;76;70;
74880;PMS5003;63427;49.654;6.596;2023-02-11T02:33:51;61;57;
74880;PMS5003;63427;49.654;6.596;2023-02-11T02:36:17;60;56;
74880;PMS5003;63427;49.654;6.596;2023-02-11T02:38:43;67;60;
74880;PMS5003;63427;49.654;6.596;2023-02-11T02:41:07;64;63;
74880;PMS5003;63427;49.654;6.596;2023-02-11T02:43:31;67;61;
74880;PMS5003;63427;49.654;6.596;2023-02-11T02:48:25;71;66;
74880;PMS5003;63427;49.654;6.596;2023-02-11T02:50:49;63;57;
74880;PMS5003;63427;49.654;6.596;2023-02-11T02:53:17;61;61;
74880;PMS5003;63427;49.654;6.596;2023-02-11T02:55:42;62;60;
74880;PMS5003;63427;49.654;6.596;2023-02-11T02:58:10;63;57;
74880;PMS5003;63427;49.654;6.596;2023-02-11T03:00:31;60;57;
74880;PMS5003;63427;49.654;6.596;2023-02-11T03:02:59;67;65;
74880;PMS5003;63427;49.654;6.596;2023-02-11T03:05:22;73;67;
74880;PMS5003;63427;49.654;6.596;2023-02-11T03:07:47;79;73;
74880;PMS5003;63427;49.654;6.596;2023-02-11T03:10:12;61;59;
74880;PMS5003;63427;49.654;6.596;2023-02-11T03:12:36;70;67;
74880;PMS5003;63427;49.654;6.596;2023-02-11T03:15:02;54;52;
74880;PMS5003;63427;49.654;6.596;2023-02-11T03:17:27;66;66;
74880;PMS5003;63427;49.654;6.596;2023-02-11T03:19:52;56;55;
74880;PMS5003;63427;49.654;6.596;2023-02-11T03:22:19;67;66;
74880;PMS5003;63427;49.654;6.596;2023-02-11T03:24:43;56;52;
74880;PMS5003;63427;49.654;6.596;2023-02-11T03:27:09;77;73;
74880;PMS5003;63427;49.654;6.596;2023-02-11T03:29:34;68;65;
74880;PMS5003;63427;49.654;6.596;2023-02-11T03:32:00;68;65;
74880;PMS5003;63427;49.654;6.596;2023-02-11T03:34:26;70;63;
74880;PMS5003;63427;49.654;6.596;2023-02-11T03:36:52;75;69;
74880;PMS5003;63427;49.654;6.596;2023-02-11T03:39:16;65;61;
74880;PMS5003;63427;49.654;6.596;2023-02-11T03:41:41;61;57;
74880;PMS5003;63427;49.654;6.596;2023-02-11T03:44:07;78;71;
74880;PMS5003;63427;49.654;6.596;2023-02-11T03:46:32;63;60;
74880;PMS5003;63427;49.654;6.596;2023-02-11T03:48:58;73;70;
74880;PMS5003;63427;49.654;6.596;2023-02-11T03:51:22;61;58;
74880;PMS5003;63427;49.654;6.596;2023-02-11T03:53:48;68;60;
74880;PMS5003;63427;49.654;6.596;2023-02-11T03:56:15;71;69;
74880;PMS5003;63427;49.654;6.596;2023-02-11T03:58:39;64;62;
74880;PMS5003;63427;49.654;6.596;2023-02-11T04:01:05;69;65;
74880;PMS5003;63427;49.654;6.596;2023-02-11T04:03:30;68;64;
74880;PMS5003;63427;49.654;6.596;2023-02-11T04:05:56;68;66;
74880;PMS5003;63427;49.654;6.596;2023-02-11T04:08:21;69;66;
74880;PMS5003;63427;49.654;6.596;2023-02-11T04:10:46;67;60;
74880;PMS5003;63427;49.654;6.596;2023-02-11T04:13:12;67;65;
74880;PMS5003;63427;49.654;6.596;2023-02-11T04:15:37;59;55;
74880;PMS5003;63427;49.654;6.596;2023-02-11T04:18:02;64;58;
74880;PMS5003;63427;49.654;6.596;2023-02-11T04:20:27;72;67;
74880;PMS5003;63427;49.654;6.596;2023-02-11T04:22:53;69;67;
74880;PMS5003;63427;49.654;6.596;2023-02-11T04:25:18;68;64;
74880;PMS5003;63427;49.654;6.596;2023-02-11T04:27:44;60;58;
74880;PMS5003;63427;49.654;6.596;2023-02-11T04:30:10;64;59;
74880;PMS5003;63427;49.654;6.596;2023-02-11T04:32:35;70;64;
74880;PMS5003;63427;49.654;6.596;2023-02-11T04:35:00;60;57;
74880;PMS5003;63427;49.654;6.596;2023-02-11T04:37:26;58;55;
74880;PMS5003;63427;49.654;6.596;2023-02-11T04:39:51;65;63;
74880;PMS5003;63427;49.654;6.596;2023-02-11T04:42:16;61;59;
74880;PMS5003;63427;49.654;6.596;2023-02-11T04:44:42;64;60;
74880;PMS5003;63427;49.654;6.596;2023-02-11T04:47:08;75;69;
74880;PMS5003;63427;49.654;6.596;2023-02-11T04:49:33;64;63;
74880;PMS5003;63427;49.654;6.596;2023-02-11T04:51:58;61;59;
74880;PMS5003;63427;49.654;6.596;2023-02-11T04:54:23;63;61;
74880;PMS5003;63427;49.654;6.596;2023-02-11T04:56:49;68;63;
74880;PMS5003;63427;49.654;6.596;2023-02-11T04:59:14;72;66;
74880;PMS5003;63427;49.654;6.596;2023-02-11T05:01:39;63;60;
74880;PMS5003;63427;49.654;6.596;2023-02-11T05:04:05;65;63;
74880;PMS5003;63427;49.654;6.596;2023-02-11T05:06:30;65;64;
74880;PMS5003;63427;49.654;6.596;2023-02-11T05:08:56;70;64;
74880;PMS5003;63427;49.654;6.596;2023-02-11T05:11:22;60;57;
74880;PMS5003;63427;49.654;6.596;2023-02-11T05:13:46;75;70;
74880;PMS5003;63427;49.654;6.596;2023-02-11T05:16:12;69;65;
74880;PMS5003;63427;49.654;6.596;2023-02-11T05:18:38;72;67;
74880;PMS5003;63427;49.654;6.596;2023-02-11T05:21:04;71;65;
74880;PMS5003;63427;49.654;6.596;2023-02-11T05:23:29;66;65;
74880;PMS5003;63427;49.654;6.596;2023-02-11T05:25:55;63;56;
74880;PMS5003;63427;49.654;6.596;2023-02-11T05:28:20;63;60;
74880;PMS5003;63427;49.654;6.596;2023-02-11T05:30:45;58;56;
74880;PMS5003;63427;49.654;6.596;2023-02-11T05:33:10;66;58;
74880;PMS5003;63427;49.654;6.596;2023-02-11T05:35:36;62;59;
74880;PMS5003;63427;49.654;6.596;2023-02-11T05:38:02;61;58;
74880;PMS5003;63427;49.654;6.596;2023-02-11T05:40:27;59;58;
74880;PMS5003;63427;49.654;6.596;2023-02-11T05:42:53;67;62;
74880;PMS5003;63427;49.654;6.596;2023-02-11T05:45:18;59;56;
74880;PMS5003;63427;49.654;6.596;2023-02-11T05:47:44;55;52;
74880;PMS5003;63427;49.654;6.596;2023-02-11T05:50:09;62;58;
74880;PMS5003;63427;49.654;6.596;2023-02-11T05:52:34;60;57;
74880;PMS5003;63427;49.654;6.596;2023-02-11T05:55:00;57;55;
74880;PMS5003;63427;49.654;6.596;2023-02-11T05:57:25;63;59;
74880;PMS5003;63427;49.654;6.596;2023-02-11T05:59:51;67;62;
74880;PMS5003;63427;49.654;6.596;2023-02-11T06:02:16;55;52;
74880;PMS5003;63427;49.654;6.596;2023-02-11T06:04:41;55;53;
74880;PMS5003;63427;49.654;6.596;2023-02-11T06:07:06;52;49;
74880;PMS5003;63427;49.654;6.596;2023-02-11T06:09:32;61;58;
74880;PMS5003;63427;49.654;6.596;2023-02-11T06:11:57;66;59;
74880;PMS5003;63427;49.654;6.596;2023-02-11T06:14:22;63;59;
74880;PMS5003;63427;49.654;6.596;2023-02-11T06:16:47;77;67;
74880;PMS5003;63427;49.654;6.596;2023-02-11T06:19:13;63;57;
74880;PMS5003;63427;49.654;6.596;2023-02-11T06:21:38;65;60;
74880;PMS5003;63427;49.654;6.596;2023-02-11T06:24:04;66;64;
74880;PMS5003;63427;49.654;6.596;2023-02-11T06:26:30;67;63;
74880;PMS5003;63427;49.654;6.596;2023-02-11T06:28:55;74;71;
74880;PMS5003;63427;49.654;6.596;2023-02-11T06:31:20;72;69;
74880;PMS5003;63427;49.654;6.596;2023-02-11T06:33:46;72;62;
74880;PMS5003;63427;49.654;6.596;2023-02-11T06:36:13;63;60;
74880;PMS5003;63427;49.654;6.596;2023-02-11T06:38:37;63;61;
74880;PMS5003;63427;49.654;6.596;2023-02-11T06:41:02;65;64;
74880;PMS5003;63427;49.654;6.596;2023-02-11T06:43:27;67;64;
74880;PMS5003;63427;49.654;6.596;2023-02-11T06:45:54;73;69;
74880;PMS5003;63427;49.654;6.596;2023-02-11T06:48:18;69;64;
74880;PMS5003;63427;49.654;6.596;2023-02-11T06:50:44;72;65;
74880;PMS5003;63427;49.654;6.596;2023-02-11T06:53:09;81;73;
74880;PMS5003;63427;49.654;6.596;2023-02-11T06:55:34;73;71;
74880;PMS5003;63427;49.654;6.596;2023-02-11T06:58:00;69;67;
74880;PMS5003;63427;49.654;6.596;2023-02-11T07:00:25;72;66;
74880;PMS5003;63427;49.654;6.596;2023-02-11T07:02:50;69;66;
74880;PMS5003;63427;49.654;6.596;2023-02-11T07:05:16;73;71;
74880;PMS5003;63427;49.654;6.596;2023-02-11T07:07:41;71;66;
74880;PMS5003;63427;49.654;6.596;2023-02-11T07:10:07;72;71;
74880;PMS5003;63427;49.654;6.596;2023-02-11T07:12:32;74;68;
74880;PMS5003;63427;49.654;6.596;2023-02-11T07:14:58;73;71;
74880;PMS5003;63427;49.654;6.596;2023-02-11T07:17:23;77;74;
74880;PMS5003;63427;49.654;6.596;2023-02-11T07:19:48;76;72;
74880;PMS5003;63427;49.654;6.596;2023-02-11T07:22:14;76;67;
74880;PMS5003;63427;49.654;6.596;2023-02-11T07:24:40;82;79;
74880;PMS5003;63427;49.654;6.596;2023-02-11T07:27:05;77;70;
74880;PMS5003;63427;49.654;6.596;2023-02-11T07:29:30;73;70;
74880;PMS5003;63427;49.654;6.596;2023-02-11T07:31:55;74;68;
74880;PMS5003;63427;49.654;6.596;2023-02-11T07:34:21;70;66;
74880;PMS5003;63427;49.654;6.596;2023-02-11T07:36:47;72;67;
74880;PMS5003;63427;49.654;6.596;2023-02-11T07:39:12;72;71;
74880;PMS5003;63427;49.654;6.596;2023-02-11T07:41:38;70;66;
74880;PMS5003;63427;49.654;6.596;2023-02-11T07:44:03;78;75;
74880;PMS5003;63427;49.654;6.596;2023-02-11T07:46:28;72;69;
74880;PMS5003;63427;49.654;6.596;2023-02-11T07:48:54;72;68;
74880;PMS5003;63427;49.654;6.596;2023-02-11T07:51:20;75;66;
74880;PMS5003;63427;49.654;6.596;2023-02-11T07:53:45;71;66;
74880;PMS5003;63427;49.654;6.596;2023-02-11T07:56:11;79;74;
74880;PMS5003;63427;49.654;6.596;2023-02-11T07:58:36;68;67;
74880;PMS5003;63427;49.654;6.596;2023-02-11T08:01:01;79;73;
74880;PMS5003;63427;49.654;6.596;2023-02-11T08:03:26;81;77;
74880;PMS5003;63427;49.654;6.596;2023-02-11T08:05:51;80;73;
74880;PMS5003;63427;49.654;6.596;2023-02-11T08:08:17;76;74;
74880;PMS5003;63427;49.654;6.596;2023-02-11T08:10:42;78;71;
74880;PMS5003;63427;49.654;6.596;2023-02-11T08:13:08;73;69;
74880;PMS5003;63427;49.654;6.596;2023-02-11T08:15:34;74;70;
74880;PMS5003;63427;49.654;6.596;2023-02-11T08:17:59;79;75;
74880;PMS5003;63427;49.654;6.596;2023-02-11T08:20:25;75;73;
74880;PMS5003;63427;49.654;6.596;2023-02-11T08:22:50;82;75;
74880;PMS5003;63427;49.654;6.596;2023-02-11T08:25:15;69;69;
74880;PMS5003;63427;49.654;6.596;2023-02-11T08:27:41;82;73;
74880;PMS5003;63427;49.654;6.596;2023-02-11T08:30:07;72;70;
74880;PMS5003;63427;49.654;6.596;2023-02-11T08:32:33;74;67;
74880;PMS5003;63427;49.654;6.596;2023-02-11T08:34:57;78;77;
74880;PMS5003;63427;49.654;6.596;2023-02-11T08:37:23;80;76;
74880;PMS5003;63427;49.654;6.596;2023-02-11T08:39:48;78;74;
74880;PMS5003;63427;49.654;6.596;2023-02-11T08:42:14;75;73;
74880;PMS5003;63427;49.654;6.596;2023-02-11T08:44:40;77;74;
74880;PMS5003;63427;49.654;6.596;2023-02-11T08:47:04;105;102;
74880;PMS5003;63427;49.654;6.596;2023-02-11T08:49:29;112;109;
74880;PMS5003;63427;49.654;6.596;2023-02-11T08:51:55;90;85;
74880;PMS5003;63427;49.654;6.596;2023-02-11T08:54:20;68;63;
74880;PMS5003;63427;49.654;6.596;2023-02-11T08:56:49;71;70;
74880;PMS5003;63427;49.654;6.596;2023-02-11T08:59:12;70;66;
74880;PMS5003;63427;49.654;6.596;2023-02-11T09:01:37;64;60;
74880;PMS5003;63427;49.654;6.596;2023-02-11T09:04:02;65;61;
74880;PMS5003;63427;49.654;6.596;2023-02-11T09:06:27;61;60;
74880;PMS5003;63427;49.654;6.596;2023-02-11T09:08:53;56;54;
74880;PMS5003;63427;49.654;6.596;2023-02-11T09:11:20;63;61;
74880;PMS5003;63427;49.654;6.596;2023-02-11T09:13:44;63;61;
74880;PMS5003;63427;49.654;6.596;2023-02-11T09:16:14;65;63;
74880;PMS5003;63427;49.654;6.596;2023-02-11T09:18:34;63;61;
74880;PMS5003;63427;49.654;6.596;2023-02-11T09:21:01;69;66;
74880;PMS5003;63427;49.654;6.596;2023-02-11T09:23:25;65;60;
74880;PMS5003;63427;49.654;6.596;2023-02-11T09:25:50;62;61;
74880;PMS5003;63427;49.654;6.596;2023-02-11T09:28:16;74;68;
74880;PMS5003;63427;49.654;6.596;2023-02-11T09:30:41;63;61;
74880;PMS5003;63427;49.654;6.596;2023-02-11T09:33:07;65;63;
74880;PMS5003;63427;49.654;6.596;2023-02-11T09:35:33;61;57;
74880;PMS5003;63427;49.654;6.596;2023-02-11T09:37:58;63;58;
74880;PMS5003;63427;49.654;6.596;2023-02-11T09:40:24;71;67;
74880;PMS5003;63427;49.654;6.596;2023-02-11T09:42:49;61;58;
74880;PMS5003;63427;49.654;6.596;2023-02-11T09:45:16;50;49;
74880;PMS5003;63427;49.654;6.596;2023-02-11T09:47:42;63;58;
74880;PMS5003;63427;49.654;6.596;2023-02-11T09:50:05;59;57;
74880;PMS5003;63427;49.654;6.596;2023-02-11T09:52:32;60;58;
74880;PMS5003;63427;49.654;6.596;2023-02-11T09:54:56;72;65;
74880;PMS5003;63427;49.654;6.596;2023-02-11T09:57:31;64;60;
74880;PMS5003;63427;49.654;6.596;2023-02-11T09:59:47;63;58;
74880;PMS5003;63427;49.654;6.596;2023-02-11T10:02:14;49;47;
74880;PMS5003;63427;49.654;6.596;2023-02-11T10:04:43;43;41;
74880;PMS5003;63427;49.654;6.596;2023-02-11T10:07:06;46;43;
74880;PMS5003;63427;49.654;6.596;2023-02-11T10:09:33;55;51;
74880;PMS5003;63427;49.654;6.596;2023-02-11T10:11:57;52;48;
74880;PMS5003;63427;49.654;6.596;2023-02-11T10:14:24;44;40;
74880;PMS5003;63427;49.654;6.596;2023-02-11T10:16:49;52;49;
74880;PMS5003;63427;49.654;6.596;2023-02-11T10:19:14;54;49;
74880;PMS5003;63427;49.654;6.596;2023-02-11T10:21:37;53;51;
74880;PMS5003;63427;49.654;6.596;2023-02-11T10:24:02;52;49;
74880;PMS5003;63427;49.654;6.596;2023-02-11T10:26:26;54;51;
74880;PMS5003;63427;49.654;6.596;2023-02-11T10:28:51;62;60;
74880;PMS5003;63427;49.654;6.596;2023-02-11T10:31:18;56;54;
74880;PMS5003;63427;49.654;6.596;2023-02-11T10:33:43;47;44;
74880;PMS5003;63427;49.654;6.596;2023-02-11T10:36:07;51;50;
74880;PMS5003;63427;49.654;6.596;2023-02-11T10:38:33;48;46;
74880;PMS5003;63427;49.654;6.596;2023-02-11T10:40:58;50;47;
74880;PMS5003;63427;49.654;6.596;2023-02-11T10:43:25;44;41;
74880;PMS5003;63427;49.654;6.596;2023-02-11T10:45:49;43;40;
74880;PMS5003;63427;49.654;6.596;2023-02-11T10:50:40;43;41;
74880;PMS5003;63427;49.654;6.596;2023-02-11T10:53:11;43;39;
74880;PMS5003;63427;49.654;6.596;2023-02-11T10:55:31;37;37;
74880;PMS5003;63427;49.654;6.596;2023-02-11T10:57:57;41;40;
74880;PMS5003;63427;49.654;6.596;2023-02-11T11:00:25;52;48;
74880;PMS5003;63427;49.654;6.596;2023-02-11T11:02:52;44;40;
74880;PMS5003;63427;49.654;6.596;2023-02-11T11:05:14;40;39;
74880;PMS5003;63427;49.654;6.596;2023-02-11T11:07:38;38;38;
74880;PMS5003;63427;49.654;6.596;2023-02-11T11:10:05;46;46;
74880;PMS5003;63427;49.654;6.596;2023-02-11T11:12:32;49;47;
74880;PMS5003;63427;49.654;6.596;2023-02-11T11:14:56;46;43;
74880;PMS5003;63427;49.654;6.596;2023-02-11T11:17:21;56;52;
74880;PMS5003;63427;49.654;6.596;2023-02-11T11:19:46;43;41;
74880;PMS5003;63427;49.654;6.596;2023-02-11T11:24:38;41;39;
74880;PMS5003;63427;49.654;6.596;2023-02-11T11:27:03;38;37;
74880;PMS5003;63427;49.654;6.596;2023-02-11T11:29:29;38;37;
74880;PMS5003;63427;49.654;6.596;2023-02-11T11:31:54;43;42;
74880;PMS5003;63427;49.654;6.596;2023-02-11T11:34:22;45;43;
74880;PMS5003;63427;49.654;6.596;2023-02-11T11:36:44;35;35;
74880;PMS5003;63427;49.654;6.596;2023-02-11T11:39:17;40;38;
74880;PMS5003;63427;49.654;6.596;2023-02-11T11:41:35;46;42;
74880;PMS5003;63427;49.654;6.596;2023-02-11T11:44:03;36;35;
74880;PMS5003;63427;49.654;6.596;2023-02-11T11:46:28;36;35;
74880;PMS5003;63427;49.654;6.596;2023-02-11T11:48:52;39;39;
74880;PMS5003;63427;49.654;6.596;2023-02-11T11:51:17;32;30;
74880;PMS5003;63427;49.654;6.596;2023-02-11T11:53:44;32;30;
74880;PMS5003;63427;49.654;6.596;2023-02-11T11:56:10;34;32;
74880;PMS5003;63427;49.654;6.596;2023-02-11T11:58:34;38;33;
74880;PMS5003;63427;49.654;6.596;2023-02-11T12:01:01;42;40;
74880;PMS5003;63427;49.654;6.596;2023-02-11T12:03:31;32;31;
74880;PMS5003;63427;49.654;6.596;2023-02-11T12:05:52;33;31;
74880;PMS5003;63427;49.654;6.596;2023-02-11T12:08:15;31;30;
74880;PMS5003;63427;49.654;6.596;2023-02-11T12:10:48;29;29;
74880;PMS5003;63427;49.654;6.596;2023-02-11T12:13:10;27;27;
74880;PMS5003;63427;49.654;6.596;2023-02-11T12:15:33;31;28;
74880;PMS5003;63427;49.654;6.596;2023-02-11T12:18:05;29;28;
74880;PMS5003;63427;49.654;6.596;2023-02-11T12:20:25;31;30;
74880;PMS5003;63427;49.654;6.596;2023-02-11T12:22:52;32;32;
74880;PMS5003;63427;49.654;6.596;2023-02-11T12:25:18;35;35;
74880;PMS5003;63427;49.654;6.596;2023-02-11T12:27:42;38;37;
74880;PMS5003;63427;49.654;6.596;2023-02-11T12:30:08;36;35;
74880;PMS5003;63427;49.654;6.596;2023-02-11T12:32:31;39;39;
74880;PMS5003;63427;49.654;6.596;2023-02-11T12:35:00;42;41;
74880;PMS5003;63427;49.654;6.596;2023-02-11T12:37:24;36;35;
74880;PMS5003;63427;49.654;6.596;2023-02-11T12:39:48;33;32;
74880;PMS5003;63427;49.654;6.596;2023-02-11T12:42:15;35;34;
74880;PMS5003;63427;49.654;6.596;2023-02-11T12:44:44;38;37;
74880;PMS5003;63427;49.654;6.596;2023-02-11T12:47:05;34;34;
74880;PMS5003;63427;49.654;6.596;2023-02-11T12:49:31;33;32;
74880;PMS5003;63427;49.654;6.596;2023-02-11T12:51:58;37;36;
74880;PMS5003;63427;49.654;6.596;2023-02-11T12:54:20;35;35;
74880;PMS5003;63427;49.654;6.596;2023-02-11T12:56:45;34;32;
74880;PMS5003;63427;49.654;6.596;2023-02-11T12:59:12;33;32;
74880;PMS5003;63427;49.654;6.596;2023-02-11T13:01:35;37;34;
74880;PMS5003;63427;49.654;6.596;2023-02-11T13:04:03;37;36;
74880;PMS5003;63427;49.654;6.596;2023-02-11T13:06:27;29;27;
74880;PMS5003;63427;49.654;6.596;2023-02-11T13:08:51;30;29;
74880;PMS5003;63427;49.654;6.596;2023-02-11T13:11:17;29;28;
74880;PMS5003;63427;49.654;6.596;2023-02-11T13:13:45;26;26;
74880;PMS5003;63427;49.654;6.596;2023-02-11T13:16:12;32;30;
74880;PMS5003;63427;49.654;6.596;2023-02-11T13:18:37;34;34;
74880;PMS5003;63427;49.654;6.596;2023-02-11T13:21:00;32;29;
74880;PMS5003;63427;49.654;6.596;2023-02-11T13:23:25;37;35;
74880;PMS5003;63427;49.654;6.596;2023-02-11T13:25:52;27;27;
74880;PMS5003;63427;49.654;6.596;2023-02-11T13:28:19;31;30;
74880;PMS5003;63427;49.654;6.596;2023-02-11T13:30:40;33;33;
74880;PMS5003;63427;49.654;6.596;2023-02-11T13:35:32;28;27;
74880;PMS5003;63427;49.654;6.596;2023-02-11T13:37:57;38;37;
74880;PMS5003;63427;49.654;6.596;2023-02-11T13:40:23;35;35;
74880;PMS5003;63427;49.654;6.596;2023-02-11T13:42:49;31;30;
74880;PMS5003;63427;49.654;6.596;2023-02-11T13:45:16;33;31;
74880;PMS5003;63427;49.654;6.596;2023-02-11T13:47:38;30;28;
74880;PMS5003;63427;49.654;6.596;2023-02-11T13:50:05;31;31;
74880;PMS5003;63427;49.654;6.596;2023-02-11T13:52:30;32;32;
74880;PMS5003;63427;49.654;6.596;2023-02-11T13:54:56;37;35;
74880;PMS5003;63427;49.654;6.596;2023-02-11T13:57:22;32;31;
74880;PMS5003;63427;49.654;6.596;2023-02-11T13:59:45;25;23;
74880;PMS5003;63427;49.654;6.596;2023-02-11T14:04:35;36;35;
74880;PMS5003;63427;49.654;6.596;2023-02-11T14:09:32;44;43;
74880;PMS5003;63427;49.654;6.596;2023-02-11T14:11:52;44;41;
74880;PMS5003;63427;49.654;6.596;2023-02-11T14:14:21;33;32;
74880;PMS5003;63427;49.654;6.596;2023-02-11T14:19:08;48;42;
74880;PMS5003;63427;49.654;6.596;2023-02-11T14:21:34;42;42;
74880;PMS5003;63427;49.654;6.596;2023-02-11T14:26:27;36;34;
74880;PMS5003;63427;49.654;6.596;2023-02-11T14:28:50;46;44;
74880;PMS5003;63427;49.654;6.596;2023-02-11T14:31:16;45;44;
74880;PMS5003;63427;49.654;6.596;2023-02-11T14:36:08;42;41;
74880;PMS5003;63427;49.654;6.596;2023-02-11T14:38:43;53;50;
74880;PMS5003;63427;49.654;6.596;2023-02-11T14:40:57;51;49;
74880;PMS5003;63427;49.654;6.596;2023-02-11T14:43:22;53;51;
74880;PMS5003;63427;49.654;6.596;2023-02-11T14:45:48;48;46;
74880;PMS5003;63427;49.654;6.596;2023-02-11T15:07:34;51;48;
74880;PMS5003;63427;49.654;6.596;2023-02-11T15:10:00;55;54;
74880;PMS5003;63427;49.654;6.596;2023-02-11T15:12:25;44;41;
74880;PMS5003;63427;49.654;6.596;2023-02-11T15:19:47;41;39;
74880;PMS5003;63427;49.654;6.596;2023-02-11T15:27:10;48;45;
74880;PMS5003;63427;49.654;6.596;2023-02-11T15:29:34;45;44;
74880;PMS5003;63427;49.654;6.596;2023-02-11T15:34:14;38;38;
74880;PMS5003;63427;49.654;6.596;2023-02-11T15:36:40;46;44;
74880;PMS5003;63427;49.654;6.596;2023-02-11T15:41:33;37;35;
74880;PMS5003;63427;49.654;6.596;2023-02-11T15:44:24;46;45;
74880;PMS5003;63427;49.654;6.596;2023-02-11T15:48:48;39;38;
74880;PMS5003;63427;49.654;6.596;2023-02-11T15:51:19;52;48;
74880;PMS5003;63427;49.654;6.596;2023-02-11T15:53:39;47;44;
74880;PMS5003;63427;49.654;6.596;2023-02-11T15:56:08;44;44;
74880;PMS5003;63427;49.654;6.596;2023-02-11T15:58:46;45;43;
74880;PMS5003;63427;49.654;6.596;2023-02-11T16:00:55;46;44;
74880;PMS5003;63427;49.654;6.596;2023-02-11T16:03:21;47;45;
74880;PMS5003;63427;49.654;6.596;2023-02-11T16:08:16;42;42;
74880;PMS5003;63427;49.654;6.596;2023-02-11T16:10:36;45;42;
74880;PMS5003;63427;49.654;6.596;2023-02-11T16:13:16;45;44;
74880;PMS5003;63427;49.654;6.596;2023-02-11T16:17:54;50;47;
74880;PMS5003;63427;49.654;6.596;2023-02-11T16:20:18;54;52;
74880;PMS5003;63427;49.654;6.596;2023-02-11T16:22:44;45;41;
74880;PMS5003;63427;49.654;6.596;2023-02-11T16:27:34;43;41;
74880;PMS5003;63427;49.654;6.596;2023-02-11T16:29:58;39;39;
74880;PMS5003;63427;49.654;6.596;2023-02-11T16:32:25;46;45;
74880;PMS5003;63427;49.654;6.596;2023-02-11T16:34:51;48;45;
74880;PMS5003;63427;49.654;6.596;2023-02-11T16:37:15;52;49;
74880;PMS5003;63427;49.654;6.596;2023-02-11T16:39:41;43;41;
74880;PMS5003;63427;49.654;6.596;2023-02-11T16:42:06;51;45;
74880;PMS5003;63427;49.654;6.596;2023-02-11T16:44:32;47;44;
74880;PMS5003;63427;49.654;6.596;2023-02-11T16:46:58;53;50;
74880;PMS5003;63427;49.654;6.596;2023-02-11T16:49:24;46;43;
74880;PMS5003;63427;49.654;6.596;2023-02-11T16:51:50;54;53;
74880;PMS5003;63427;49.654;6.596;2023-02-11T17:08:46;49;46;
74880;PMS5003;63427;49.654;6.596;2023-02-11T17:11:11;42;41;
74880;PMS5003;63427;49.654;6.596;2023-02-11T17:13:37;56;51;
74880;PMS5003;63427;49.654;6.596;2023-02-11T17:18:45;52;47;
74880;PMS5003;63427;49.654;6.596;2023-02-11T17:20:53;49;47;
74880;PMS5003;63427;49.654;6.596;2023-02-11T17:23:20;62;60;
74880;PMS5003;63427;49.654;6.596;2023-02-11T17:30:50;59;56;
74880;PMS5003;63427;49.654;6.596;2023-02-11T17:33:00;64;62;
74880;PMS5003;63427;49.654;6.596;2023-02-11T17:35:26;68;67;